sensor_id;sensor_type;location;lat;lon;timestamp;P1;durP1;ratioP1;P2;durP2;ratioP2
42700;SDS011;28316;49.504;8.526;2023-08-08T00:01:20;3.92;;;1.02;;
42700;SDS011;28316;49.504;8.526;2023-08-08T00:03:46;3.03;;;1.25;;
42700;SDS011;28316;49.504;8.526;2023-08-08T00:06:12;2.90;;;1.25;;
42700;SDS011;28316;49.504;8.526;2023-08-08T00:08:38;6.75;;;1.58;;
42700;SDS011;28316;49.504;8.526;2023-08-08T00:11:04;1.83;;;1.00;;
42700;SDS011;28316;49.504;8.526;2023-08-08T00:13:30;2.00;;;1.17;;
42700;SDS011;28316;49.504;8.526;2023-08-08T00:15:55;2.35;;;1.15;;
42700;SDS011;28316;49.504;8.526;2023-08-08T00:18:21;1.52;;;1.00;;
42700;SDS011;28316;49.504;8.526;2023-08-08T00:20:47;1.60;;;0.80;;
42700;SDS011;28316;49.504;8.526;2023-08-08T00:23:13;2.42;;;1.15;;
42700;SDS011;28316;49.504;8.526;2023-08-08T00:25:38;1.65;;;1.00;;
42700;SDS011;28316;49.504;8.526;2023-08-08T00:28:04;3.95;;;1.20;;
42700;SDS011;28316;49.504;8.526;2023-08-08T00:30:30;2.78;;;1.17;;
42700;SDS011;28316;49.504;8.526;2023-08-08T00:32:56;0.90;;;0.70;;
42700;SDS011;28316;49.504;8.526;2023-08-08T00:35:22;5.45;;;1.45;;
42700;SDS011;28316;49.504;8.526;2023-08-08T00:37:48;4.05;;;1.38;;
42700;SDS011;28316;49.504;8.526;2023-08-08T00:40:14;2.63;;;1.10;;
42700;SDS011;28316;49.504;8.526;2023-08-08T00:42:39;2.55;;;1.27;;
42700;SDS011;28316;49.504;8.526;2023-08-08T00:45:06;1.95;;;1.08;;
42700;SDS011;28316;49.504;8.526;2023-08-08T00:47:32;3.45;;;1.40;;
42700;SDS011;28316;49.504;8.526;2023-08-08T00:49:59;1.63;;;0.95;;
42700;SDS011;28316;49.504;8.526;2023-08-08T00:52:27;2.83;;;1.05;;
42700;SDS011;28316;49.504;8.526;2023-08-08T00:54:54;1.73;;;1.00;;
42700;SDS011;28316;49.504;8.526;2023-08-08T00:57:20;1.92;;;1.00;;
42700;SDS011;28316;49.504;8.526;2023-08-08T00:59:46;2.67;;;1.25;;
42700;SDS011;28316;49.504;8.526;2023-08-08T01:02:12;1.83;;;0.90;;
42700;SDS011;28316;49.504;8.526;2023-08-08T01:04:37;2.42;;;1.00;;
42700;SDS011;28316;49.504;8.526;2023-08-08T01:10:04;3.08;;;1.17;;
42700;SDS011;28316;49.504;8.526;2023-08-08T01:12:34;2.08;;;1.10;;
42700;SDS011;28316;49.504;8.526;2023-08-08T01:15:10;2.13;;;0.90;;
42700;SDS011;28316;49.504;8.526;2023-08-08T01:17:38;3.38;;;1.27;;
42700;SDS011;28316;49.504;8.526;2023-08-08T01:20:06;1.92;;;1.23;;
42700;SDS011;28316;49.504;8.526;2023-08-08T01:22:40;2.40;;;1.08;;
42700;SDS011;28316;49.504;8.526;2023-08-08T01:25:22;1.55;;;1.00;;
42700;SDS011;28316;49.504;8.526;2023-08-08T01:27:48;1.77;;;0.88;;
42700;SDS011;28316;49.504;8.526;2023-08-08T01:30:14;2.08;;;0.95;;
42700;SDS011;28316;49.504;8.526;2023-08-08T01:32:40;7.38;;;1.52;;
42700;SDS011;28316;49.504;8.526;2023-08-08T01:35:06;1.67;;;1.08;;
42700;SDS011;28316;49.504;8.526;2023-08-08T01:37:36;1.70;;;0.85;;
42700;SDS011;28316;49.504;8.526;2023-08-08T01:40:08;2.45;;;1.17;;
42700;SDS011;28316;49.504;8.526;2023-08-08T01:42:37;2.10;;;1.20;;
42700;SDS011;28316;49.504;8.526;2023-08-08T01:45:05;3.60;;;1.30;;
42700;SDS011;28316;49.504;8.526;2023-08-08T01:47:33;2.63;;;1.00;;
42700;SDS011;28316;49.504;8.526;2023-08-08T01:49:59;2.63;;;1.15;;
42700;SDS011;28316;49.504;8.526;2023-08-08T01:52:24;1.77;;;1.25;;
42700;SDS011;28316;49.504;8.526;2023-08-08T01:54:50;3.90;;;1.23;;
42700;SDS011;28316;49.504;8.526;2023-08-08T01:57:16;4.72;;;1.38;;
42700;SDS011;28316;49.504;8.526;2023-08-08T01:59:42;1.80;;;0.75;;
42700;SDS011;28316;49.504;8.526;2023-08-08T02:02:10;3.15;;;1.50;;
42700;SDS011;28316;49.504;8.526;2023-08-08T02:04:36;3.72;;;1.13;;
42700;SDS011;28316;49.504;8.526;2023-08-08T02:07:02;1.63;;;0.90;;
42700;SDS011;28316;49.504;8.526;2023-08-08T02:09:28;2.45;;;1.15;;
42700;SDS011;28316;49.504;8.526;2023-08-08T02:11:54;1.92;;;0.88;;
42700;SDS011;28316;49.504;8.526;2023-08-08T02:14:19;5.10;;;0.98;;
42700;SDS011;28316;49.504;8.526;2023-08-08T02:16:45;2.42;;;1.30;;
42700;SDS011;28316;49.504;8.526;2023-08-08T02:19:11;7.03;;;1.38;;
42700;SDS011;28316;49.504;8.526;2023-08-08T02:21:37;3.25;;;1.42;;
42700;SDS011;28316;49.504;8.526;2023-08-08T02:24:02;2.47;;;1.00;;
42700;SDS011;28316;49.504;8.526;2023-08-08T02:26:29;2.35;;;1.02;;
42700;SDS011;28316;49.504;8.526;2023-08-08T02:28:54;3.53;;;1.38;;
42700;SDS011;28316;49.504;8.526;2023-08-08T02:31:20;3.72;;;1.38;;
42700;SDS011;28316;49.504;8.526;2023-08-08T02:33:49;3.45;;;1.83;;
42700;SDS011;28316;49.504;8.526;2023-08-08T02:36:16;2.10;;;1.00;;
42700;SDS011;28316;49.504;8.526;2023-08-08T02:38:42;2.50;;;1.25;;
42700;SDS011;28316;49.504;8.526;2023-08-08T02:41:09;3.55;;;1.33;;
42700;SDS011;28316;49.504;8.526;2023-08-08T02:43:35;4.35;;;1.27;;
42700;SDS011;28316;49.504;8.526;2023-08-08T02:46:01;2.25;;;1.00;;
42700;SDS011;28316;49.504;8.526;2023-08-08T02:48:28;1.77;;;1.35;;
42700;SDS011;28316;49.504;8.526;2023-08-08T02:50:54;3.05;;;1.33;;
42700;SDS011;28316;49.504;8.526;2023-08-08T02:53:20;2.50;;;1.48;;
42700;SDS011;28316;49.504;8.526;2023-08-08T02:55:46;2.10;;;1.02;;
42700;SDS011;28316;49.504;8.526;2023-08-08T02:58:12;2.72;;;1.35;;
42700;SDS011;28316;49.504;8.526;2023-08-08T03:00:38;2.55;;;0.95;;
42700;SDS011;28316;49.504;8.526;2023-08-08T03:03:04;2.40;;;1.17;;
42700;SDS011;28316;49.504;8.526;2023-08-08T03:05:30;2.15;;;1.25;;
42700;SDS011;28316;49.504;8.526;2023-08-08T03:07:55;1.88;;;0.60;;
42700;SDS011;28316;49.504;8.526;2023-08-08T03:10:21;4.30;;;1.48;;
42700;SDS011;28316;49.504;8.526;2023-08-08T03:12:47;2.72;;;1.35;;
42700;SDS011;28316;49.504;8.526;2023-08-08T03:15:13;1.48;;;1.00;;
42700;SDS011;28316;49.504;8.526;2023-08-08T03:17:39;2.97;;;1.33;;
42700;SDS011;28316;49.504;8.526;2023-08-08T03:20:05;5.05;;;1.58;;
42700;SDS011;28316;49.504;8.526;2023-08-08T03:22:32;3.70;;;1.30;;
42700;SDS011;28316;49.504;8.526;2023-08-08T03:24:58;8.00;;;1.35;;
42700;SDS011;28316;49.504;8.526;2023-08-08T03:27:24;2.53;;;1.17;;
42700;SDS011;28316;49.504;8.526;2023-08-08T03:29:50;7.50;;;1.30;;
42700;SDS011;28316;49.504;8.526;2023-08-08T03:32:16;4.35;;;1.30;;
42700;SDS011;28316;49.504;8.526;2023-08-08T03:34:42;1.58;;;0.85;;
42700;SDS011;28316;49.504;8.526;2023-08-08T03:37:08;3.65;;;1.27;;
42700;SDS011;28316;49.504;8.526;2023-08-08T03:39:34;3.03;;;1.48;;
42700;SDS011;28316;49.504;8.526;2023-08-08T03:42:00;1.55;;;0.77;;
42700;SDS011;28316;49.504;8.526;2023-08-08T03:44:25;3.72;;;1.17;;
42700;SDS011;28316;49.504;8.526;2023-08-08T03:46:51;3.17;;;1.10;;
42700;SDS011;28316;49.504;8.526;2023-08-08T03:49:17;1.70;;;0.88;;
42700;SDS011;28316;49.504;8.526;2023-08-08T03:51:43;8.15;;;1.27;;
42700;SDS011;28316;49.504;8.526;2023-08-08T03:54:08;4.47;;;1.33;;
42700;SDS011;28316;49.504;8.526;2023-08-08T03:56:34;5.20;;;1.48;;
42700;SDS011;28316;49.504;8.526;2023-08-08T03:59:00;2.13;;;1.30;;
42700;SDS011;28316;49.504;8.526;2023-08-08T04:01:25;4.10;;;1.70;;
42700;SDS011;28316;49.504;8.526;2023-08-08T04:03:51;8.48;;;2.53;;
42700;SDS011;28316;49.504;8.526;2023-08-08T04:06:17;6.75;;;1.80;;
42700;SDS011;28316;49.504;8.526;2023-08-08T04:08:43;9.20;;;2.28;;
42700;SDS011;28316;49.504;8.526;2023-08-08T04:11:08;2.35;;;1.13;;
42700;SDS011;28316;49.504;8.526;2023-08-08T04:13:34;2.78;;;1.05;;
42700;SDS011;28316;49.504;8.526;2023-08-08T04:16:00;3.53;;;1.40;;
42700;SDS011;28316;49.504;8.526;2023-08-08T04:18:26;3.75;;;1.10;;
42700;SDS011;28316;49.504;8.526;2023-08-08T04:20:52;3.00;;;1.10;;
42700;SDS011;28316;49.504;8.526;2023-08-08T04:23:17;4.35;;;1.25;;
42700;SDS011;28316;49.504;8.526;2023-08-08T04:25:44;3.13;;;1.58;;
42700;SDS011;28316;49.504;8.526;2023-08-08T04:28:10;4.53;;;1.40;;
42700;SDS011;28316;49.504;8.526;2023-08-08T04:30:35;5.80;;;1.40;;
42700;SDS011;28316;49.504;8.526;2023-08-08T04:33:01;5.63;;;1.48;;
42700;SDS011;28316;49.504;8.526;2023-08-08T04:35:27;2.00;;;1.45;;
42700;SDS011;28316;49.504;8.526;2023-08-08T04:37:53;6.90;;;1.65;;
42700;SDS011;28316;49.504;8.526;2023-08-08T04:40:24;7.70;;;2.15;;
42700;SDS011;28316;49.504;8.526;2023-08-08T04:42:52;2.83;;;1.40;;
42700;SDS011;28316;49.504;8.526;2023-08-08T04:45:18;2.42;;;1.17;;
42700;SDS011;28316;49.504;8.526;2023-08-08T04:47:48;3.90;;;1.80;;
42700;SDS011;28316;49.504;8.526;2023-08-08T04:50:14;3.60;;;1.20;;
42700;SDS011;28316;49.504;8.526;2023-08-08T04:52:40;3.30;;;1.20;;
42700;SDS011;28316;49.504;8.526;2023-08-08T04:55:06;2.38;;;1.00;;
42700;SDS011;28316;49.504;8.526;2023-08-08T04:57:32;3.15;;;1.67;;
42700;SDS011;28316;49.504;8.526;2023-08-08T05:00:06;3.63;;;1.63;;
42700;SDS011;28316;49.504;8.526;2023-08-08T05:02:34;2.20;;;1.25;;
42700;SDS011;28316;49.504;8.526;2023-08-08T05:05:01;1.30;;;0.95;;
42700;SDS011;28316;49.504;8.526;2023-08-08T05:07:27;2.42;;;1.10;;
42700;SDS011;28316;49.504;8.526;2023-08-08T05:09:53;3.67;;;1.35;;
42700;SDS011;28316;49.504;8.526;2023-08-08T05:12:19;7.03;;;1.80;;
42700;SDS011;28316;49.504;8.526;2023-08-08T05:14:45;2.85;;;1.35;;
42700;SDS011;28316;49.504;8.526;2023-08-08T05:17:10;3.33;;;1.27;;
42700;SDS011;28316;49.504;8.526;2023-08-08T05:19:36;5.25;;;1.45;;
42700;SDS011;28316;49.504;8.526;2023-08-08T05:22:02;7.25;;;2.03;;
42700;SDS011;28316;49.504;8.526;2023-08-08T05:24:28;8.23;;;1.80;;
42700;SDS011;28316;49.504;8.526;2023-08-08T05:26:54;6.55;;;2.72;;
42700;SDS011;28316;49.504;8.526;2023-08-08T05:29:19;2.85;;;1.40;;
42700;SDS011;28316;49.504;8.526;2023-08-08T05:31:46;4.55;;;1.70;;
42700;SDS011;28316;49.504;8.526;2023-08-08T05:34:12;4.30;;;2.08;;
42700;SDS011;28316;49.504;8.526;2023-08-08T05:36:38;5.20;;;1.30;;
42700;SDS011;28316;49.504;8.526;2023-08-08T05:39:04;4.78;;;2.15;;
42700;SDS011;28316;49.504;8.526;2023-08-08T05:41:32;6.38;;;2.28;;
42700;SDS011;28316;49.504;8.526;2023-08-08T05:43:58;4.75;;;2.35;;
42700;SDS011;28316;49.504;8.526;2023-08-08T05:46:24;4.00;;;1.80;;
42700;SDS011;28316;49.504;8.526;2023-08-08T05:48:49;3.90;;;1.38;;
42700;SDS011;28316;49.504;8.526;2023-08-08T05:51:15;7.13;;;2.58;;
42700;SDS011;28316;49.504;8.526;2023-08-08T05:53:41;4.47;;;2.00;;
42700;SDS011;28316;49.504;8.526;2023-08-08T05:56:07;2.67;;;1.48;;
42700;SDS011;28316;49.504;8.526;2023-08-08T05:58:34;5.55;;;2.30;;
42700;SDS011;28316;49.504;8.526;2023-08-08T06:01:02;4.70;;;1.90;;
42700;SDS011;28316;49.504;8.526;2023-08-08T06:03:31;4.00;;;1.38;;
42700;SDS011;28316;49.504;8.526;2023-08-08T06:05:57;1.90;;;0.95;;
42700;SDS011;28316;49.504;8.526;2023-08-08T06:08:23;2.55;;;1.42;;
42700;SDS011;28316;49.504;8.526;2023-08-08T06:10:48;3.78;;;1.58;;
42700;SDS011;28316;49.504;8.526;2023-08-08T06:13:14;8.55;;;2.00;;
42700;SDS011;28316;49.504;8.526;2023-08-08T06:15:40;3.78;;;1.92;;
42700;SDS011;28316;49.504;8.526;2023-08-08T06:18:05;1.85;;;1.20;;
42700;SDS011;28316;49.504;8.526;2023-08-08T06:20:31;3.30;;;1.67;;
42700;SDS011;28316;49.504;8.526;2023-08-08T06:22:57;3.70;;;0.90;;
42700;SDS011;28316;49.504;8.526;2023-08-08T06:25:23;4.53;;;0.80;;
42700;SDS011;28316;49.504;8.526;2023-08-08T06:27:48;4.32;;;1.05;;
42700;SDS011;28316;49.504;8.526;2023-08-08T06:30:14;2.58;;;1.50;;
42700;SDS011;28316;49.504;8.526;2023-08-08T06:32:40;2.03;;;0.93;;
42700;SDS011;28316;49.504;8.526;2023-08-08T06:35:06;2.88;;;1.15;;
42700;SDS011;28316;49.504;8.526;2023-08-08T06:37:32;1.77;;;1.08;;
42700;SDS011;28316;49.504;8.526;2023-08-08T06:39:58;2.00;;;1.00;;
42700;SDS011;28316;49.504;8.526;2023-08-08T06:42:24;4.20;;;1.70;;
42700;SDS011;28316;49.504;8.526;2023-08-08T06:44:49;2.25;;;1.20;;
42700;SDS011;28316;49.504;8.526;2023-08-08T06:47:15;2.85;;;1.20;;
42700;SDS011;28316;49.504;8.526;2023-08-08T06:49:41;2.33;;;1.27;;
42700;SDS011;28316;49.504;8.526;2023-08-08T06:52:07;3.08;;;0.70;;
42700;SDS011;28316;49.504;8.526;2023-08-08T06:54:33;6.07;;;1.05;;
42700;SDS011;28316;49.504;8.526;2023-08-08T06:56:58;1.65;;;0.60;;
42700;SDS011;28316;49.504;8.526;2023-08-08T06:59:26;0.90;;;0.63;;
42700;SDS011;28316;49.504;8.526;2023-08-08T07:01:52;2.05;;;0.75;;
42700;SDS011;28316;49.504;8.526;2023-08-08T07:04:18;1.75;;;0.57;;
42700;SDS011;28316;49.504;8.526;2023-08-08T07:06:44;3.97;;;0.95;;
42700;SDS011;28316;49.504;8.526;2023-08-08T07:09:10;1.35;;;0.38;;
42700;SDS011;28316;49.504;8.526;2023-08-08T07:11:36;1.65;;;0.60;;
42700;SDS011;28316;49.504;8.526;2023-08-08T07:14:02;2.03;;;0.80;;
42700;SDS011;28316;49.504;8.526;2023-08-08T07:16:28;1.42;;;0.75;;
42700;SDS011;28316;49.504;8.526;2023-08-08T07:18:54;3.67;;;0.80;;
42700;SDS011;28316;49.504;8.526;2023-08-08T07:21:20;2.15;;;0.85;;
42700;SDS011;28316;49.504;8.526;2023-08-08T07:23:45;2.42;;;1.20;;
42700;SDS011;28316;49.504;8.526;2023-08-08T07:26:11;0.73;;;0.28;;
42700;SDS011;28316;49.504;8.526;2023-08-08T07:28:37;2.05;;;1.00;;
42700;SDS011;28316;49.504;8.526;2023-08-08T07:31:03;1.42;;;0.88;;
42700;SDS011;28316;49.504;8.526;2023-08-08T07:33:29;1.00;;;0.63;;
42700;SDS011;28316;49.504;8.526;2023-08-08T07:35:56;2.15;;;0.38;;
42700;SDS011;28316;49.504;8.526;2023-08-08T07:38:22;1.15;;;0.57;;
42700;SDS011;28316;49.504;8.526;2023-08-08T07:40:47;2.53;;;0.75;;
42700;SDS011;28316;49.504;8.526;2023-08-08T07:43:13;0.65;;;0.50;;
42700;SDS011;28316;49.504;8.526;2023-08-08T07:45:39;0.77;;;0.30;;
42700;SDS011;28316;49.504;8.526;2023-08-08T07:48:06;1.52;;;0.55;;
42700;SDS011;28316;49.504;8.526;2023-08-08T07:50:31;1.33;;;0.55;;
42700;SDS011;28316;49.504;8.526;2023-08-08T07:52:57;1.95;;;0.65;;
42700;SDS011;28316;49.504;8.526;2023-08-08T07:55:23;0.45;;;0.38;;
42700;SDS011;28316;49.504;8.526;2023-08-08T07:57:49;1.15;;;0.52;;
42700;SDS011;28316;49.504;8.526;2023-08-08T08:00:14;1.45;;;0.40;;
42700;SDS011;28316;49.504;8.526;2023-08-08T08:02:43;0.93;;;0.40;;
42700;SDS011;28316;49.504;8.526;2023-08-08T08:05:11;0.75;;;0.43;;
42700;SDS011;28316;49.504;8.526;2023-08-08T08:07:38;0.60;;;0.40;;
42700;SDS011;28316;49.504;8.526;2023-08-08T08:10:05;1.60;;;0.43;;
42700;SDS011;28316;49.504;8.526;2023-08-08T08:12:34;0.93;;;0.60;;
42700;SDS011;28316;49.504;8.526;2023-08-08T08:15:01;2.72;;;0.68;;
42700;SDS011;28316;49.504;8.526;2023-08-08T08:17:28;0.75;;;0.50;;
42700;SDS011;28316;49.504;8.526;2023-08-08T08:19:54;2.15;;;0.60;;
42700;SDS011;28316;49.504;8.526;2023-08-08T08:22:20;0.40;;;0.40;;
42700;SDS011;28316;49.504;8.526;2023-08-08T08:24:45;2.30;;;0.85;;
42700;SDS011;28316;49.504;8.526;2023-08-08T08:27:12;2.15;;;0.60;;
42700;SDS011;28316;49.504;8.526;2023-08-08T08:29:38;1.38;;;0.60;;
42700;SDS011;28316;49.504;8.526;2023-08-08T08:32:05;1.20;;;0.40;;
42700;SDS011;28316;49.504;8.526;2023-08-08T08:34:30;1.27;;;0.63;;
42700;SDS011;28316;49.504;8.526;2023-08-08T08:36:56;1.00;;;0.52;;
42700;SDS011;28316;49.504;8.526;2023-08-08T08:39:22;1.35;;;0.60;;
42700;SDS011;28316;49.504;8.526;2023-08-08T08:41:48;1.75;;;0.55;;
42700;SDS011;28316;49.504;8.526;2023-08-08T08:44:19;2.20;;;1.00;;
42700;SDS011;28316;49.504;8.526;2023-08-08T08:46:47;1.60;;;0.50;;
42700;SDS011;28316;49.504;8.526;2023-08-08T08:49:15;1.48;;;0.77;;
42700;SDS011;28316;49.504;8.526;2023-08-08T08:51:43;1.17;;;0.50;;
42700;SDS011;28316;49.504;8.526;2023-08-08T08:54:09;0.93;;;0.40;;
42700;SDS011;28316;49.504;8.526;2023-08-08T08:56:36;0.63;;;0.25;;
42700;SDS011;28316;49.504;8.526;2023-08-08T08:59:03;2.28;;;0.47;;
42700;SDS011;28316;49.504;8.526;2023-08-08T09:01:29;1.00;;;0.65;;
42700;SDS011;28316;49.504;8.526;2023-08-08T09:03:56;0.88;;;0.52;;
42700;SDS011;28316;49.504;8.526;2023-08-08T09:06:23;0.80;;;0.45;;
42700;SDS011;28316;49.504;8.526;2023-08-08T09:08:49;0.52;;;0.32;;
42700;SDS011;28316;49.504;8.526;2023-08-08T09:11:15;2.15;;;0.50;;
42700;SDS011;28316;49.504;8.526;2023-08-08T09:13:41;0.77;;;0.52;;
42700;SDS011;28316;49.504;8.526;2023-08-08T09:16:06;0.73;;;0.30;;
42700;SDS011;28316;49.504;8.526;2023-08-08T09:18:33;1.40;;;0.60;;
42700;SDS011;28316;49.504;8.526;2023-08-08T09:21:03;0.60;;;0.30;;
42700;SDS011;28316;49.504;8.526;2023-08-08T09:23:31;1.15;;;0.63;;
42700;SDS011;28316;49.504;8.526;2023-08-08T09:25:57;1.58;;;0.90;;
42700;SDS011;28316;49.504;8.526;2023-08-08T09:28:23;0.55;;;0.30;;
42700;SDS011;28316;49.504;8.526;2023-08-08T09:30:50;0.65;;;0.52;;
42700;SDS011;28316;49.504;8.526;2023-08-08T09:33:17;0.30;;;0.25;;
42700;SDS011;28316;49.504;8.526;2023-08-08T09:35:43;1.67;;;0.50;;
42700;SDS011;28316;49.504;8.526;2023-08-08T09:38:10;1.02;;;0.57;;
42700;SDS011;28316;49.504;8.526;2023-08-08T09:40:36;1.83;;;0.57;;
42700;SDS011;28316;49.504;8.526;2023-08-08T09:43:01;0.40;;;0.30;;
42700;SDS011;28316;49.504;8.526;2023-08-08T09:45:35;1.70;;;0.63;;
42700;SDS011;28316;49.504;8.526;2023-08-08T09:48:07;0.68;;;0.30;;
42700;SDS011;28316;49.504;8.526;2023-08-08T09:50:35;2.28;;;0.70;;
42700;SDS011;28316;49.504;8.526;2023-08-08T09:53:02;0.52;;;0.30;;
42700;SDS011;28316;49.504;8.526;2023-08-08T09:55:28;2.25;;;0.35;;
42700;SDS011;28316;49.504;8.526;2023-08-08T09:57:55;1.38;;;0.52;;
42700;SDS011;28316;49.504;8.526;2023-08-08T10:00:23;1.55;;;0.68;;
42700;SDS011;28316;49.504;8.526;2023-08-08T10:02:52;0.80;;;0.28;;
42700;SDS011;28316;49.504;8.526;2023-08-08T10:05:19;1.52;;;0.50;;
42700;SDS011;28316;49.504;8.526;2023-08-08T10:07:46;0.70;;;0.30;;
42700;SDS011;28316;49.504;8.526;2023-08-08T10:10:12;0.55;;;0.40;;
42700;SDS011;28316;49.504;8.526;2023-08-08T10:12:41;1.08;;;0.45;;
42700;SDS011;28316;49.504;8.526;2023-08-08T10:15:07;1.25;;;0.60;;
42700;SDS011;28316;49.504;8.526;2023-08-08T10:17:38;0.95;;;0.50;;
42700;SDS011;28316;49.504;8.526;2023-08-08T10:20:06;1.33;;;0.80;;
42700;SDS011;28316;49.504;8.526;2023-08-08T10:22:43;0.82;;;0.57;;
42700;SDS011;28316;49.504;8.526;2023-08-08T10:25:45;0.80;;;0.47;;
42700;SDS011;28316;49.504;8.526;2023-08-08T10:28:09;2.13;;;1.00;;
42700;SDS011;28316;49.504;8.526;2023-08-08T10:30:42;6.35;;;0.90;;
42700;SDS011;28316;49.504;8.526;2023-08-08T10:33:22;1.20;;;0.40;;
42700;SDS011;28316;49.504;8.526;2023-08-08T10:38:37;0.80;;;0.47;;
42700;SDS011;28316;49.504;8.526;2023-08-08T10:41:15;2.00;;;0.55;;
42700;SDS011;28316;49.504;8.526;2023-08-08T10:43:48;0.65;;;0.40;;
42700;SDS011;28316;49.504;8.526;2023-08-08T10:48:59;1.33;;;0.38;;
42700;SDS011;28316;49.504;8.526;2023-08-08T10:51:33;1.92;;;0.47;;
42700;SDS011;28316;49.504;8.526;2023-08-08T10:54:05;0.17;;;0.17;;
42700;SDS011;28316;49.504;8.526;2023-08-08T10:56:32;0.77;;;0.35;;
42700;SDS011;28316;49.504;8.526;2023-08-08T10:59:11;1.83;;;0.80;;
42700;SDS011;28316;49.504;8.526;2023-08-08T11:01:49;1.27;;;0.43;;
42700;SDS011;28316;49.504;8.526;2023-08-08T11:04:20;2.15;;;0.50;;
42700;SDS011;28316;49.504;8.526;2023-08-08T11:06:48;6.72;;;0.73;;
42700;SDS011;28316;49.504;8.526;2023-08-08T11:09:15;0.68;;;0.43;;
42700;SDS011;28316;49.504;8.526;2023-08-08T11:11:43;1.35;;;0.70;;
42700;SDS011;28316;49.504;8.526;2023-08-08T11:14:17;1.40;;;0.47;;
42700;SDS011;28316;49.504;8.526;2023-08-08T11:16:48;3.22;;;0.45;;
42700;SDS011;28316;49.504;8.526;2023-08-08T11:19:16;1.17;;;0.43;;
42700;SDS011;28316;49.504;8.526;2023-08-08T11:21:44;1.88;;;1.00;;
42700;SDS011;28316;49.504;8.526;2023-08-08T11:24:12;1.45;;;0.50;;
42700;SDS011;28316;49.504;8.526;2023-08-08T11:26:42;2.33;;;0.57;;
42700;SDS011;28316;49.504;8.526;2023-08-08T11:29:12;1.35;;;0.60;;
42700;SDS011;28316;49.504;8.526;2023-08-08T11:31:38;1.27;;;0.57;;
42700;SDS011;28316;49.504;8.526;2023-08-08T11:34:04;2.40;;;0.65;;
42700;SDS011;28316;49.504;8.526;2023-08-08T11:36:31;1.52;;;0.70;;
42700;SDS011;28316;49.504;8.526;2023-08-08T11:39:03;1.98;;;0.82;;
42700;SDS011;28316;49.504;8.526;2023-08-08T11:41:33;3.92;;;1.30;;
42700;SDS011;28316;49.504;8.526;2023-08-08T11:44:01;2.92;;;0.60;;
42700;SDS011;28316;49.504;8.526;2023-08-08T11:46:29;1.08;;;0.65;;
42700;SDS011;28316;49.504;8.526;2023-08-08T11:49:01;0.85;;;0.40;;
42700;SDS011;28316;49.504;8.526;2023-08-08T11:51:32;0.75;;;0.35;;
42700;SDS011;28316;49.504;8.526;2023-08-08T11:54:02;2.22;;;0.77;;
42700;SDS011;28316;49.504;8.526;2023-08-08T11:56:29;1.85;;;0.50;;
42700;SDS011;28316;49.504;8.526;2023-08-08T11:58:58;1.73;;;0.68;;
42700;SDS011;28316;49.504;8.526;2023-08-08T12:01:25;1.33;;;0.50;;
42700;SDS011;28316;49.504;8.526;2023-08-08T12:03:51;1.65;;;0.70;;
42700;SDS011;28316;49.504;8.526;2023-08-08T12:06:19;2.03;;;0.52;;
42700;SDS011;28316;49.504;8.526;2023-08-08T12:08:45;3.45;;;0.50;;
42700;SDS011;28316;49.504;8.526;2023-08-08T12:11:13;1.98;;;0.57;;
42700;SDS011;28316;49.504;8.526;2023-08-08T12:13:41;2.97;;;0.60;;
42700;SDS011;28316;49.504;8.526;2023-08-08T12:16:09;4.53;;;0.50;;
42700;SDS011;28316;49.504;8.526;2023-08-08T12:18:37;1.13;;;0.40;;
42700;SDS011;28316;49.504;8.526;2023-08-08T12:21:04;0.95;;;0.43;;
42700;SDS011;28316;49.504;8.526;2023-08-08T12:23:32;1.15;;;0.55;;
42700;SDS011;28316;49.504;8.526;2023-08-08T12:25:59;2.20;;;0.63;;
42700;SDS011;28316;49.504;8.526;2023-08-08T12:28:28;0.70;;;0.20;;
42700;SDS011;28316;49.504;8.526;2023-08-08T12:30:54;1.77;;;0.50;;
42700;SDS011;28316;49.504;8.526;2023-08-08T12:33:20;1.13;;;0.40;;
42700;SDS011;28316;49.504;8.526;2023-08-08T12:35:46;1.65;;;0.25;;
42700;SDS011;28316;49.504;8.526;2023-08-08T12:38:13;1.65;;;0.57;;
42700;SDS011;28316;49.504;8.526;2023-08-08T12:40:40;2.58;;;0.47;;
42700;SDS011;28316;49.504;8.526;2023-08-08T12:43:06;1.25;;;0.57;;
42700;SDS011;28316;49.504;8.526;2023-08-08T12:45:31;1.95;;;0.82;;
42700;SDS011;28316;49.504;8.526;2023-08-08T12:47:57;1.27;;;0.52;;
42700;SDS011;28316;49.504;8.526;2023-08-08T12:50:24;6.07;;;0.98;;
42700;SDS011;28316;49.504;8.526;2023-08-08T12:52:49;3.00;;;0.60;;
42700;SDS011;28316;49.504;8.526;2023-08-08T12:55:16;2.95;;;0.40;;
42700;SDS011;28316;49.504;8.526;2023-08-08T12:57:44;2.47;;;0.38;;
42700;SDS011;28316;49.504;8.526;2023-08-08T13:00:10;0.60;;;0.40;;
42700;SDS011;28316;49.504;8.526;2023-08-08T13:02:37;0.85;;;0.50;;
42700;SDS011;28316;49.504;8.526;2023-08-08T13:05:04;1.25;;;0.60;;
42700;SDS011;28316;49.504;8.526;2023-08-08T13:07:32;1.05;;;0.47;;
42700;SDS011;28316;49.504;8.526;2023-08-08T13:09:58;2.38;;;0.73;;
42700;SDS011;28316;49.504;8.526;2023-08-08T13:12:23;3.30;;;0.93;;
42700;SDS011;28316;49.504;8.526;2023-08-08T13:14:49;2.17;;;0.80;;
42700;SDS011;28316;49.504;8.526;2023-08-08T13:17:15;1.20;;;0.30;;
42700;SDS011;28316;49.504;8.526;2023-08-08T13:19:41;2.03;;;0.70;;
42700;SDS011;28316;49.504;8.526;2023-08-08T13:22:06;1.10;;;0.65;;
42700;SDS011;28316;49.504;8.526;2023-08-08T13:24:32;0.38;;;0.10;;
42700;SDS011;28316;49.504;8.526;2023-08-08T13:26:58;0.50;;;0.20;;
42700;SDS011;28316;49.504;8.526;2023-08-08T13:29:24;0.60;;;0.47;;
42700;SDS011;28316;49.504;8.526;2023-08-08T13:31:49;2.65;;;0.70;;
42700;SDS011;28316;49.504;8.526;2023-08-08T13:34:15;0.85;;;0.40;;
42700;SDS011;28316;49.504;8.526;2023-08-08T13:36:41;0.90;;;0.30;;
42700;SDS011;28316;49.504;8.526;2023-08-08T13:39:07;0.82;;;0.35;;
42700;SDS011;28316;49.504;8.526;2023-08-08T13:41:34;0.93;;;0.50;;
42700;SDS011;28316;49.504;8.526;2023-08-08T13:44:00;0.25;;;0.22;;
42700;SDS011;28316;49.504;8.526;2023-08-08T13:46:26;1.17;;;0.57;;
42700;SDS011;28316;49.504;8.526;2023-08-08T13:48:52;1.48;;;0.45;;
42700;SDS011;28316;49.504;8.526;2023-08-08T13:51:17;11.75;;;0.90;;
42700;SDS011;28316;49.504;8.526;2023-08-08T13:53:43;1.80;;;0.45;;
42700;SDS011;28316;49.504;8.526;2023-08-08T13:56:10;1.67;;;0.50;;
42700;SDS011;28316;49.504;8.526;2023-08-08T13:58:36;1.15;;;0.35;;
42700;SDS011;28316;49.504;8.526;2023-08-08T14:01:02;0.70;;;0.40;;
42700;SDS011;28316;49.504;8.526;2023-08-08T14:03:27;2.95;;;0.70;;
42700;SDS011;28316;49.504;8.526;2023-08-08T14:05:53;0.70;;;0.40;;
42700;SDS011;28316;49.504;8.526;2023-08-08T14:08:19;1.52;;;0.47;;
42700;SDS011;28316;49.504;8.526;2023-08-08T14:10:45;2.72;;;0.63;;
42700;SDS011;28316;49.504;8.526;2023-08-08T14:13:11;2.25;;;0.82;;
42700;SDS011;28316;49.504;8.526;2023-08-08T14:15:37;0.50;;;0.30;;
42700;SDS011;28316;49.504;8.526;2023-08-08T14:18:03;1.10;;;0.52;;
42700;SDS011;28316;49.504;8.526;2023-08-08T14:20:29;1.38;;;0.28;;
42700;SDS011;28316;49.504;8.526;2023-08-08T14:22:55;1.13;;;0.40;;
42700;SDS011;28316;49.504;8.526;2023-08-08T14:25:21;0.57;;;0.40;;
42700;SDS011;28316;49.504;8.526;2023-08-08T14:27:47;1.85;;;0.50;;
42700;SDS011;28316;49.504;8.526;2023-08-08T14:30:13;16.10;;;0.63;;
42700;SDS011;28316;49.504;8.526;2023-08-08T14:32:39;0.40;;;0.22;;
42700;SDS011;28316;49.504;8.526;2023-08-08T14:35:05;1.30;;;0.52;;
42700;SDS011;28316;49.504;8.526;2023-08-08T14:37:33;1.00;;;0.52;;
42700;SDS011;28316;49.504;8.526;2023-08-08T14:40:00;1.45;;;0.50;;
42700;SDS011;28316;49.504;8.526;2023-08-08T14:42:27;8.13;;;0.82;;
42700;SDS011;28316;49.504;8.526;2023-08-08T14:44:53;1.27;;;0.80;;
42700;SDS011;28316;49.504;8.526;2023-08-08T14:47:19;1.38;;;0.60;;
42700;SDS011;28316;49.504;8.526;2023-08-08T14:49:45;1.42;;;0.70;;
42700;SDS011;28316;49.504;8.526;2023-08-08T14:52:12;0.80;;;0.50;;
42700;SDS011;28316;49.504;8.526;2023-08-08T14:54:38;1.95;;;0.60;;